sensor_id;sensor_type;location;lat;lon;timestamp;P1;durP1;ratioP1;P2;durP2;ratioP2
8247;SDS011;4164;49.844;8.830;2023-02-15T00:01:40;26.67;;;14.77;;
8247;SDS011;4164;49.844;8.830;2023-02-15T00:04:07;32.27;;;14.67;;
8247;SDS011;4164;49.844;8.830;2023-02-15T00:06:34;27.47;;;14.23;;
8247;SDS011;4164;49.844;8.830;2023-02-15T00:09:00;28.90;;;14.73;;
8247;SDS011;4164;49.844;8.830;2023-02-15T00:11:26;30.17;;;15.47;;
8247;SDS011;4164;49.844;8.830;2023-02-15T00:14:12;26.03;;;14.20;;
8247;SDS011;4164;49.844;8.830;2023-02-15T00:16:39;26.60;;;14.70;;
8247;SDS011;4164;49.844;8.830;2023-02-15T00:19:06;26.27;;;13.90;;
8247;SDS011;4164;49.844;8.830;2023-02-15T00:21:33;28.13;;;14.03;;
8247;SDS011;4164;49.844;8.830;2023-02-15T00:24:00;25.20;;;13.47;;
8247;SDS011;4164;49.844;8.830;2023-02-15T00:26:28;31.00;;;14.43;;
8247;SDS011;4164;49.844;8.830;2023-02-15T00:28:54;26.33;;;14.27;;
8247;SDS011;4164;49.844;8.830;2023-02-15T00:31:20;27.87;;;14.40;;
8247;SDS011;4164;49.844;8.830;2023-02-15T00:33:46;28.63;;;14.90;;
8247;SDS011;4164;49.844;8.830;2023-02-15T00:36:12;25.97;;;14.47;;
8247;SDS011;4164;49.844;8.830;2023-02-15T00:38:38;26.03;;;14.00;;
8247;SDS011;4164;49.844;8.830;2023-02-15T00:41:04;29.50;;;15.23;;
8247;SDS011;4164;49.844;8.830;2023-02-15T00:43:31;28.80;;;14.47;;
8247;SDS011;4164;49.844;8.830;2023-02-15T00:45:58;28.33;;;14.50;;
8247;SDS011;4164;49.844;8.830;2023-02-15T00:48:24;25.80;;;14.00;;
8247;SDS011;4164;49.844;8.830;2023-02-15T00:50:51;25.90;;;14.50;;
8247;SDS011;4164;49.844;8.830;2023-02-15T00:53:19;29.30;;;15.30;;
8247;SDS011;4164;49.844;8.830;2023-02-15T00:55:46;33.23;;;16.00;;
8247;SDS011;4164;49.844;8.830;2023-02-15T00:58:12;33.03;;;16.87;;
8247;SDS011;4164;49.844;8.830;2023-02-15T01:00:38;30.23;;;15.73;;
8247;SDS011;4164;49.844;8.830;2023-02-15T01:03:04;35.43;;;16.10;;
8247;SDS011;4164;49.844;8.830;2023-02-15T01:05:30;28.77;;;16.27;;
8247;SDS011;4164;49.844;8.830;2023-02-15T01:07:57;30.53;;;15.97;;
8247;SDS011;4164;49.844;8.830;2023-02-15T01:10:23;30.93;;;15.57;;
8247;SDS011;4164;49.844;8.830;2023-02-15T01:12:49;33.60;;;16.33;;
8247;SDS011;4164;49.844;8.830;2023-02-15T01:15:16;32.63;;;16.50;;
8247;SDS011;4164;49.844;8.830;2023-02-15T01:17:42;28.37;;;15.97;;
8247;SDS011;4164;49.844;8.830;2023-02-15T01:20:10;31.10;;;15.97;;
8247;SDS011;4164;49.844;8.830;2023-02-15T01:22:36;28.57;;;15.20;;
8247;SDS011;4164;49.844;8.830;2023-02-15T01:25:02;27.40;;;15.07;;
8247;SDS011;4164;49.844;8.830;2023-02-15T01:27:28;32.33;;;17.27;;
8247;SDS011;4164;49.844;8.830;2023-02-15T01:29:55;30.40;;;15.63;;
8247;SDS011;4164;49.844;8.830;2023-02-15T01:32:21;33.43;;;15.37;;
8247;SDS011;4164;49.844;8.830;2023-02-15T01:34:46;27.63;;;15.30;;
8247;SDS011;4164;49.844;8.830;2023-02-15T01:37:12;32.83;;;16.23;;
8247;SDS011;4164;49.844;8.830;2023-02-15T01:39:37;33.07;;;16.00;;
8247;SDS011;4164;49.844;8.830;2023-02-15T01:42:03;30.57;;;16.07;;
8247;SDS011;4164;49.844;8.830;2023-02-15T01:47:22;30.83;;;16.33;;
8247;SDS011;4164;49.844;8.830;2023-02-15T01:50:06;30.63;;;15.23;;
8247;SDS011;4164;49.844;8.830;2023-02-15T01:52:41;29.67;;;15.87;;
8247;SDS011;4164;49.844;8.830;2023-02-15T01:55:13;30.03;;;16.27;;
8247;SDS011;4164;49.844;8.830;2023-02-15T01:57:40;31.37;;;16.23;;
8247;SDS011;4164;49.844;8.830;2023-02-15T02:00:07;32.87;;;15.73;;
8247;SDS011;4164;49.844;8.830;2023-02-15T02:02:33;31.53;;;15.60;;
8247;SDS011;4164;49.844;8.830;2023-02-15T02:05:00;33.10;;;16.83;;
8247;SDS011;4164;49.844;8.830;2023-02-15T02:07:32;32.20;;;15.53;;
8247;SDS011;4164;49.844;8.830;2023-02-15T02:10:02;34.40;;;16.93;;
8247;SDS011;4164;49.844;8.830;2023-02-15T02:12:29;29.77;;;16.17;;
8247;SDS011;4164;49.844;8.830;2023-02-15T02:14:54;29.73;;;15.50;;
8247;SDS011;4164;49.844;8.830;2023-02-15T02:17:34;31.70;;;16.13;;
8247;SDS011;4164;49.844;8.830;2023-02-15T02:20:17;29.87;;;15.70;;
8247;SDS011;4164;49.844;8.830;2023-02-15T02:39:07;32.63;;;16.20;;
8247;SDS011;4164;49.844;8.830;2023-02-15T02:44:23;31.70;;;16.27;;
8247;SDS011;4164;49.844;8.830;2023-02-15T02:47:18;31.50;;;15.40;;
8247;SDS011;4164;49.844;8.830;2023-02-15T02:49:59;134.67;;;28.67;;
8247;SDS011;4164;49.844;8.830;2023-02-15T02:57:47;35.30;;;17.73;;
8247;SDS011;4164;49.844;8.830;2023-02-15T03:00:20;37.33;;;18.97;;
8247;SDS011;4164;49.844;8.830;2023-02-15T03:02:48;46.37;;;18.53;;
8247;SDS011;4164;49.844;8.830;2023-02-15T03:05:20;37.57;;;17.43;;
8247;SDS011;4164;49.844;8.830;2023-02-15T03:07:50;41.17;;;18.23;;
8247;SDS011;4164;49.844;8.830;2023-02-15T03:10:19;63.40;;;19.53;;
8247;SDS011;4164;49.844;8.830;2023-02-15T03:12:47;41.80;;;17.20;;
8247;SDS011;4164;49.844;8.830;2023-02-15T03:15:19;42.87;;;17.50;;
8247;SDS011;4164;49.844;8.830;2023-02-15T03:17:55;44.80;;;18.90;;
8247;SDS011;4164;49.844;8.830;2023-02-15T03:20:25;46.27;;;18.80;;
8247;SDS011;4164;49.844;8.830;2023-02-15T03:22:56;41.83;;;18.13;;
8247;SDS011;4164;49.844;8.830;2023-02-15T03:25:39;45.00;;;17.67;;
8247;SDS011;4164;49.844;8.830;2023-02-15T03:28:15;40.20;;;17.67;;
8247;SDS011;4164;49.844;8.830;2023-02-15T03:30:46;35.20;;;17.33;;
8247;SDS011;4164;49.844;8.830;2023-02-15T03:33:16;37.10;;;16.90;;
8247;SDS011;4164;49.844;8.830;2023-02-15T03:35:44;34.40;;;17.20;;
8247;SDS011;4164;49.844;8.830;2023-02-15T03:38:17;34.40;;;17.07;;
8247;SDS011;4164;49.844;8.830;2023-02-15T03:40:47;50.90;;;18.00;;
8247;SDS011;4164;49.844;8.830;2023-02-15T03:49:00;32.80;;;16.47;;
8247;SDS011;4164;49.844;8.830;2023-02-15T03:51:30;36.20;;;16.43;;
8247;SDS011;4164;49.844;8.830;2023-02-15T03:54:42;36.43;;;17.17;;
8247;SDS011;4164;49.844;8.830;2023-02-15T03:57:21;36.20;;;16.93;;
8247;SDS011;4164;49.844;8.830;2023-02-15T04:00:14;35.83;;;17.87;;
8247;SDS011;4164;49.844;8.830;2023-02-15T04:03:11;31.73;;;15.23;;
8247;SDS011;4164;49.844;8.830;2023-02-15T04:05:47;36.30;;;16.93;;
8247;SDS011;4164;49.844;8.830;2023-02-15T04:08:12;31.60;;;15.67;;
8247;SDS011;4164;49.844;8.830;2023-02-15T04:10:38;38.83;;;15.83;;
8247;SDS011;4164;49.844;8.830;2023-02-15T04:13:24;33.77;;;16.80;;
8247;SDS011;4164;49.844;8.830;2023-02-15T04:15:56;31.97;;;15.93;;
8247;SDS011;4164;49.844;8.830;2023-02-15T04:18:28;31.57;;;15.40;;
8247;SDS011;4164;49.844;8.830;2023-02-15T04:21:14;35.33;;;15.63;;
8247;SDS011;4164;49.844;8.830;2023-02-15T04:23:59;33.40;;;15.90;;
8247;SDS011;4164;49.844;8.830;2023-02-15T04:26:43;41.20;;;17.17;;
8247;SDS011;4164;49.844;8.830;2023-02-15T04:29:08;37.07;;;16.80;;
8247;SDS011;4164;49.844;8.830;2023-02-15T04:31:34;29.00;;;15.03;;
8247;SDS011;4164;49.844;8.830;2023-02-15T04:33:59;33.13;;;15.03;;
8247;SDS011;4164;49.844;8.830;2023-02-15T04:36:25;32.40;;;15.10;;
8247;SDS011;4164;49.844;8.830;2023-02-15T04:38:50;31.30;;;15.50;;
8247;SDS011;4164;49.844;8.830;2023-02-15T04:41:16;30.87;;;14.63;;
8247;SDS011;4164;49.844;8.830;2023-02-15T04:43:41;28.00;;;13.73;;
8247;SDS011;4164;49.844;8.830;2023-02-15T04:46:07;31.03;;;16.43;;
8247;SDS011;4164;49.844;8.830;2023-02-15T04:48:32;37.03;;;15.43;;
8247;SDS011;4164;49.844;8.830;2023-02-15T04:50:58;38.10;;;15.57;;
8247;SDS011;4164;49.844;8.830;2023-02-15T04:53:23;30.17;;;14.80;;
8247;SDS011;4164;49.844;8.830;2023-02-15T04:55:49;35.73;;;15.70;;
8247;SDS011;4164;49.844;8.830;2023-02-15T04:58:14;36.47;;;15.33;;
8247;SDS011;4164;49.844;8.830;2023-02-15T05:00:40;39.13;;;15.87;;
8247;SDS011;4164;49.844;8.830;2023-02-15T05:03:05;41.27;;;15.43;;
8247;SDS011;4164;49.844;8.830;2023-02-15T05:05:31;41.70;;;15.10;;
8247;SDS011;4164;49.844;8.830;2023-02-15T05:07:56;33.43;;;16.50;;
8247;SDS011;4164;49.844;8.830;2023-02-15T05:10:22;33.90;;;16.27;;
8247;SDS011;4164;49.844;8.830;2023-02-15T05:12:48;33.27;;;15.43;;
8247;SDS011;4164;49.844;8.830;2023-02-15T05:15:13;32.77;;;15.03;;
8247;SDS011;4164;49.844;8.830;2023-02-15T05:17:39;32.93;;;16.00;;
8247;SDS011;4164;49.844;8.830;2023-02-15T05:20:05;32.53;;;15.07;;
8247;SDS011;4164;49.844;8.830;2023-02-15T05:22:30;39.73;;;15.27;;
8247;SDS011;4164;49.844;8.830;2023-02-15T05:24:56;35.13;;;15.50;;
8247;SDS011;4164;49.844;8.830;2023-02-15T05:27:40;36.93;;;15.83;;
8247;SDS011;4164;49.844;8.830;2023-02-15T05:30:24;31.53;;;15.57;;
8247;SDS011;4164;49.844;8.830;2023-02-15T05:32:50;37.90;;;15.33;;
8247;SDS011;4164;49.844;8.830;2023-02-15T05:35:15;30.13;;;14.20;;
8247;SDS011;4164;49.844;8.830;2023-02-15T05:37:41;32.80;;;16.37;;
8247;SDS011;4164;49.844;8.830;2023-02-15T05:40:07;27.93;;;14.83;;
8247;SDS011;4164;49.844;8.830;2023-02-15T05:42:33;36.27;;;16.23;;
8247;SDS011;4164;49.844;8.830;2023-02-15T05:44:59;33.40;;;14.93;;
8247;SDS011;4164;49.844;8.830;2023-02-15T05:47:24;59.27;;;17.90;;
8247;SDS011;4164;49.844;8.830;2023-02-15T05:49:50;30.57;;;15.77;;
8247;SDS011;4164;49.844;8.830;2023-02-15T05:52:15;31.43;;;14.17;;
8247;SDS011;4164;49.844;8.830;2023-02-15T05:54:41;27.30;;;13.93;;
8247;SDS011;4164;49.844;8.830;2023-02-15T05:57:06;26.80;;;14.60;;
8247;SDS011;4164;49.844;8.830;2023-02-15T05:59:32;28.70;;;14.57;;
8247;SDS011;4164;49.844;8.830;2023-02-15T06:01:57;26.07;;;12.77;;
8247;SDS011;4164;49.844;8.830;2023-02-15T06:04:23;23.60;;;13.43;;
8247;SDS011;4164;49.844;8.830;2023-02-15T06:06:48;27.17;;;12.97;;
8247;SDS011;4164;49.844;8.830;2023-02-15T06:09:14;24.30;;;13.13;;
8247;SDS011;4164;49.844;8.830;2023-02-15T06:11:40;24.00;;;13.17;;
8247;SDS011;4164;49.844;8.830;2023-02-15T06:14:05;26.27;;;13.10;;
8247;SDS011;4164;49.844;8.830;2023-02-15T06:16:31;24.43;;;13.73;;
8247;SDS011;4164;49.844;8.830;2023-02-15T06:18:56;27.17;;;14.00;;
8247;SDS011;4164;49.844;8.830;2023-02-15T06:21:24;28.53;;;13.60;;
8247;SDS011;4164;49.844;8.830;2023-02-15T06:23:49;24.53;;;12.70;;
8247;SDS011;4164;49.844;8.830;2023-02-15T06:26:15;21.67;;;11.30;;
8247;SDS011;4164;49.844;8.830;2023-02-15T06:28:40;23.60;;;12.50;;
8247;SDS011;4164;49.844;8.830;2023-02-15T06:31:06;29.23;;;13.97;;
8247;SDS011;4164;49.844;8.830;2023-02-15T06:33:32;23.00;;;12.07;;
8247;SDS011;4164;49.844;8.830;2023-02-15T06:35:58;22.50;;;11.47;;
8247;SDS011;4164;49.844;8.830;2023-02-15T06:38:24;25.70;;;12.33;;
8247;SDS011;4164;49.844;8.830;2023-02-15T06:40:50;27.03;;;12.60;;
8247;SDS011;4164;49.844;8.830;2023-02-15T06:43:15;22.43;;;12.30;;
8247;SDS011;4164;49.844;8.830;2023-02-15T06:45:41;26.40;;;12.20;;
8247;SDS011;4164;49.844;8.830;2023-02-15T06:48:07;23.13;;;12.80;;
8247;SDS011;4164;49.844;8.830;2023-02-15T06:50:33;25.93;;;13.43;;
8247;SDS011;4164;49.844;8.830;2023-02-15T06:52:59;24.37;;;12.93;;
8247;SDS011;4164;49.844;8.830;2023-02-15T06:55:25;27.00;;;12.80;;
8247;SDS011;4164;49.844;8.830;2023-02-15T06:57:50;24.70;;;13.00;;
8247;SDS011;4164;49.844;8.830;2023-02-15T07:00:16;29.00;;;14.10;;
8247;SDS011;4164;49.844;8.830;2023-02-15T07:02:42;25.73;;;13.47;;
8247;SDS011;4164;49.844;8.830;2023-02-15T07:05:08;22.20;;;12.40;;
8247;SDS011;4164;49.844;8.830;2023-02-15T07:07:34;28.30;;;13.77;;
8247;SDS011;4164;49.844;8.830;2023-02-15T07:09:59;29.07;;;14.07;;
8247;SDS011;4164;49.844;8.830;2023-02-15T07:12:25;32.77;;;16.53;;
8247;SDS011;4164;49.844;8.830;2023-02-15T07:15:13;22.50;;;12.80;;
8247;SDS011;4164;49.844;8.830;2023-02-15T07:17:40;27.63;;;14.60;;
8247;SDS011;4164;49.844;8.830;2023-02-15T07:20:10;22.77;;;12.50;;
8247;SDS011;4164;49.844;8.830;2023-02-15T07:22:38;22.83;;;12.30;;
8247;SDS011;4164;49.844;8.830;2023-02-15T07:25:04;24.63;;;12.80;;
8247;SDS011;4164;49.844;8.830;2023-02-15T07:27:31;26.90;;;13.57;;
8247;SDS011;4164;49.844;8.830;2023-02-15T07:29:57;23.00;;;12.23;;
8247;SDS011;4164;49.844;8.830;2023-02-15T07:32:22;25.50;;;12.30;;
8247;SDS011;4164;49.844;8.830;2023-02-15T07:34:48;23.10;;;12.23;;
8247;SDS011;4164;49.844;8.830;2023-02-15T07:37:13;26.60;;;13.13;;
8247;SDS011;4164;49.844;8.830;2023-02-15T07:39:39;25.07;;;12.13;;
8247;SDS011;4164;49.844;8.830;2023-02-15T07:42:04;24.00;;;11.93;;
8247;SDS011;4164;49.844;8.830;2023-02-15T07:44:30;22.67;;;12.23;;
8247;SDS011;4164;49.844;8.830;2023-02-15T07:46:55;23.27;;;12.57;;
8247;SDS011;4164;49.844;8.830;2023-02-15T07:49:21;24.33;;;12.10;;
8247;SDS011;4164;49.844;8.830;2023-02-15T07:51:47;23.97;;;12.13;;
8247;SDS011;4164;49.844;8.830;2023-02-15T07:54:12;24.10;;;13.23;;
8247;SDS011;4164;49.844;8.830;2023-02-15T07:56:38;26.37;;;12.10;;
8247;SDS011;4164;49.844;8.830;2023-02-15T07:59:03;25.03;;;12.77;;
8247;SDS011;4164;49.844;8.830;2023-02-15T08:01:33;22.20;;;12.60;;
8247;SDS011;4164;49.844;8.830;2023-02-15T08:04:00;22.73;;;12.27;;
8247;SDS011;4164;49.844;8.830;2023-02-15T08:06:28;53.83;;;14.30;;
8247;SDS011;4164;49.844;8.830;2023-02-15T08:08:55;26.47;;;12.93;;
8247;SDS011;4164;49.844;8.830;2023-02-15T08:11:22;22.80;;;12.37;;
8247;SDS011;4164;49.844;8.830;2023-02-15T08:16:47;20.70;;;12.17;;
8247;SDS011;4164;49.844;8.830;2023-02-15T08:21:43;20.67;;;11.37;;
8247;SDS011;4164;49.844;8.830;2023-02-15T08:24:12;21.10;;;11.83;;
8247;SDS011;4164;49.844;8.830;2023-02-15T08:26:39;20.80;;;10.87;;
8247;SDS011;4164;49.844;8.830;2023-02-15T08:29:06;22.93;;;12.10;;
8247;SDS011;4164;49.844;8.830;2023-02-15T08:31:33;26.63;;;13.30;;
8247;SDS011;4164;49.844;8.830;2023-02-15T08:33:59;27.37;;;12.70;;
8247;SDS011;4164;49.844;8.830;2023-02-15T08:36:26;29.60;;;13.77;;
8247;SDS011;4164;49.844;8.830;2023-02-15T08:38:53;29.03;;;13.90;;
8247;SDS011;4164;49.844;8.830;2023-02-15T08:41:20;29.83;;;14.37;;
8247;SDS011;4164;49.844;8.830;2023-02-15T08:43:48;25.40;;;13.03;;
8247;SDS011;4164;49.844;8.830;2023-02-15T08:46:16;30.57;;;13.83;;
8247;SDS011;4164;49.844;8.830;2023-02-15T08:48:42;22.90;;;12.57;;
8247;SDS011;4164;49.844;8.830;2023-02-15T08:51:10;30.50;;;13.23;;
8247;SDS011;4164;49.844;8.830;2023-02-15T08:53:38;24.70;;;12.60;;
8247;SDS011;4164;49.844;8.830;2023-02-15T08:56:06;23.80;;;13.30;;
8247;SDS011;4164;49.844;8.830;2023-02-15T08:58:34;25.50;;;12.13;;
8247;SDS011;4164;49.844;8.830;2023-02-15T09:01:07;20.67;;;11.30;;
8247;SDS011;4164;49.844;8.830;2023-02-15T09:03:37;16.27;;;9.90;;
8247;SDS011;4164;49.844;8.830;2023-02-15T09:06:03;25.10;;;11.37;;
8247;SDS011;4164;49.844;8.830;2023-02-15T09:08:29;16.77;;;10.73;;
8247;SDS011;4164;49.844;8.830;2023-02-15T09:11:03;19.33;;;10.53;;
8247;SDS011;4164;49.844;8.830;2023-02-15T09:13:37;20.30;;;11.30;;
8247;SDS011;4164;49.844;8.830;2023-02-15T09:16:05;18.70;;;10.73;;
8247;SDS011;4164;49.844;8.830;2023-02-15T09:18:34;20.07;;;10.57;;
8247;SDS011;4164;49.844;8.830;2023-02-15T09:21:09;19.07;;;11.67;;
8247;SDS011;4164;49.844;8.830;2023-02-15T09:23:38;21.03;;;12.03;;
8247;SDS011;4164;49.844;8.830;2023-02-15T09:26:06;18.93;;;11.23;;
8247;SDS011;4164;49.844;8.830;2023-02-15T09:28:34;22.63;;;11.67;;
8247;SDS011;4164;49.844;8.830;2023-02-15T09:32:00;23.70;;;12.47;;
8247;SDS011;4164;49.844;8.830;2023-02-15T09:33:58;19.17;;;11.30;;
8247;SDS011;4164;49.844;8.830;2023-02-15T09:36:27;19.00;;;11.33;;
8247;SDS011;4164;49.844;8.830;2023-02-15T09:38:58;21.20;;;10.87;;
8247;SDS011;4164;49.844;8.830;2023-02-15T09:42:04;22.50;;;12.43;;
8247;SDS011;4164;49.844;8.830;2023-02-15T09:58:42;21.73;;;11.37;;
8247;SDS011;4164;49.844;8.830;2023-02-15T10:09:28;23.10;;;11.50;;
8247;SDS011;4164;49.844;8.830;2023-02-15T10:17:29;21.83;;;13.03;;
8247;SDS011;4164;49.844;8.830;2023-02-15T10:28:09;18.40;;;11.10;;
8247;SDS011;4164;49.844;8.830;2023-02-15T10:36:00;20.03;;;10.00;;
8247;SDS011;4164;49.844;8.830;2023-02-15T10:38:32;24.77;;;12.77;;
8247;SDS011;4164;49.844;8.830;2023-02-15T10:41:15;26.97;;;13.93;;
8247;SDS011;4164;49.844;8.830;2023-02-15T10:46:50;36.73;;;17.07;;
8247;SDS011;4164;49.844;8.830;2023-02-15T10:52:25;37.47;;;17.30;;
8247;SDS011;4164;49.844;8.830;2023-02-15T11:00:34;38.03;;;17.17;;
8247;SDS011;4164;49.844;8.830;2023-02-15T11:03:19;35.97;;;16.67;;
8247;SDS011;4164;49.844;8.830;2023-02-15T11:06:09;39.93;;;18.27;;
8247;SDS011;4164;49.844;8.830;2023-02-15T11:08:42;36.87;;;17.97;;
8247;SDS011;4164;49.844;8.830;2023-02-15T11:11:13;40.43;;;18.03;;
8247;SDS011;4164;49.844;8.830;2023-02-15T11:13:45;44.77;;;19.07;;
8247;SDS011;4164;49.844;8.830;2023-02-15T11:16:16;43.33;;;18.30;;
8247;SDS011;4164;49.844;8.830;2023-02-15T11:18:53;38.07;;;17.50;;
8247;SDS011;4164;49.844;8.830;2023-02-15T11:21:31;40.47;;;18.83;;
8247;SDS011;4164;49.844;8.830;2023-02-15T11:24:13;42.97;;;19.17;;
8247;SDS011;4164;49.844;8.830;2023-02-15T11:29:33;42.03;;;18.10;;
8247;SDS011;4164;49.844;8.830;2023-02-15T11:35:02;40.43;;;19.10;;
8247;SDS011;4164;49.844;8.830;2023-02-15T11:40:54;36.03;;;18.03;;
8247;SDS011;4164;49.844;8.830;2023-02-15T11:43:39;39.70;;;18.90;;
8247;SDS011;4164;49.844;8.830;2023-02-15T11:46:03;36.10;;;17.63;;
8247;SDS011;4164;49.844;8.830;2023-02-15T11:48:30;35.73;;;17.40;;
8247;SDS011;4164;49.844;8.830;2023-02-15T11:50:56;33.97;;;16.70;;
8247;SDS011;4164;49.844;8.830;2023-02-15T11:53:23;32.87;;;17.50;;
8247;SDS011;4164;49.844;8.830;2023-02-15T11:55:52;30.80;;;16.70;;
8247;SDS011;4164;49.844;8.830;2023-02-15T11:58:38;31.00;;;16.20;;
8247;SDS011;4164;49.844;8.830;2023-02-15T12:01:14;32.63;;;16.83;;
8247;SDS011;4164;49.844;8.830;2023-02-15T12:03:52;32.53;;;16.50;;
8247;SDS011;4164;49.844;8.830;2023-02-15T12:06:44;27.97;;;15.73;;
8247;SDS011;4164;49.844;8.830;2023-02-15T12:09:22;30.87;;;16.43;;
8247;SDS011;4164;49.844;8.830;2023-02-15T12:12:19;31.30;;;16.97;;
8247;SDS011;4164;49.844;8.830;2023-02-15T12:15:14;28.53;;;15.00;;
8247;SDS011;4164;49.844;8.830;2023-02-15T12:17:55;31.33;;;16.60;;
8247;SDS011;4164;49.844;8.830;2023-02-15T12:20:24;24.83;;;14.17;;
8247;SDS011;4164;49.844;8.830;2023-02-15T12:22:59;29.07;;;15.63;;
8247;SDS011;4164;49.844;8.830;2023-02-15T12:28:24;32.10;;;15.93;;
8247;SDS011;4164;49.844;8.830;2023-02-15T12:31:09;31.13;;;16.73;;
8247;SDS011;4164;49.844;8.830;2023-02-15T12:33:46;28.20;;;14.57;;
8247;SDS011;4164;49.844;8.830;2023-02-15T12:36:17;26.37;;;14.47;;
8247;SDS011;4164;49.844;8.830;2023-02-15T12:41:44;23.67;;;13.83;;
8247;SDS011;4164;49.844;8.830;2023-02-15T12:47:16;22.57;;;13.73;;
8247;SDS011;4164;49.844;8.830;2023-02-15T12:49:44;23.20;;;13.40;;
8247;SDS011;4164;49.844;8.830;2023-02-15T12:52:29;19.93;;;12.03;;
8247;SDS011;4164;49.844;8.830;2023-02-15T12:54:54;22.83;;;13.30;;
8247;SDS011;4164;49.844;8.830;2023-02-15T12:57:34;19.43;;;12.03;;
8247;SDS011;4164;49.844;8.830;2023-02-15T13:00:02;18.30;;;11.00;;
8247;SDS011;4164;49.844;8.830;2023-02-15T13:05:04;16.03;;;11.93;;
8247;SDS011;4164;49.844;8.830;2023-02-15T13:07:59;14.47;;;11.67;;
8247;SDS011;4164;49.844;8.830;2023-02-15T13:10:29;16.53;;;12.53;;
8247;SDS011;4164;49.844;8.830;2023-02-15T13:12:58;14.30;;;11.07;;
8247;SDS011;4164;49.844;8.830;2023-02-15T13:15:40;16.93;;;12.27;;
8247;SDS011;4164;49.844;8.830;2023-02-15T13:18:13;14.97;;;12.30;;
8247;SDS011;4164;49.844;8.830;2023-02-15T13:20:43;13.83;;;11.57;;
8247;SDS011;4164;49.844;8.830;2023-02-15T13:23:24;17.17;;;12.53;;
8247;SDS011;4164;49.844;8.830;2023-02-15T13:25:52;15.67;;;12.17;;
8247;SDS011;4164;49.844;8.830;2023-02-15T13:28:22;14.23;;;11.47;;
8247;SDS011;4164;49.844;8.830;2023-02-15T13:31:14;15.97;;;11.57;;
8247;SDS011;4164;49.844;8.830;2023-02-15T13:33:43;15.87;;;12.37;;
8247;SDS011;4164;49.844;8.830;2023-02-15T13:41:35;16.50;;;13.10;;
8247;SDS011;4164;49.844;8.830;2023-02-15T13:44:41;15.63;;;12.43;;
8247;SDS011;4164;49.844;8.830;2023-02-15T13:47:22;16.83;;;13.10;;
8247;SDS011;4164;49.844;8.830;2023-02-15T13:50:10;17.90;;;12.60;;
8247;SDS011;4164;49.844;8.830;2023-02-15T14:12:01;25.60;;;14.13;;
8247;SDS011;4164;49.844;8.830;2023-02-15T14:17:42;22.53;;;13.80;;
8247;SDS011;4164;49.844;8.830;2023-02-15T14:20:19;26.23;;;14.93;;
8247;SDS011;4164;49.844;8.830;2023-02-15T14:23:12;27.20;;;14.97;;
8247;SDS011;4164;49.844;8.830;2023-02-15T14:25:41;25.13;;;15.23;;
8247;SDS011;4164;49.844;8.830;2023-02-15T14:28:15;26.60;;;15.63;;
8247;SDS011;4164;49.844;8.830;2023-02-15T14:30:48;25.50;;;14.90;;
8247;SDS011;4164;49.844;8.830;2023-02-15T14:33:23;24.80;;;15.30;;
8247;SDS011;4164;49.844;8.830;2023-02-15T14:35:55;25.60;;;14.30;;
8247;SDS011;4164;49.844;8.830;2023-02-15T14:38:36;27.30;;;15.67;;
8247;SDS011;4164;49.844;8.830;2023-02-15T14:44:00;24.27;;;14.53;;
8247;SDS011;4164;49.844;8.830;2023-02-15T14:49:36;25.67;;;15.30;;
8247;SDS011;4164;49.844;8.830;2023-02-15T14:52:04;25.33;;;14.63;;
8247;SDS011;4164;49.844;8.830;2023-02-15T15:04:37;23.90;;;15.13;;
8247;SDS011;4164;49.844;8.830;2023-02-15T15:07:14;27.00;;;15.60;;
8247;SDS011;4164;49.844;8.830;2023-02-15T15:10:03;24.97;;;15.00;;
8247;SDS011;4164;49.844;8.830;2023-02-15T15:13:00;23.73;;;14.67;;
8247;SDS011;4164;49.844;8.830;2023-02-15T15:15:54;27.00;;;15.27;;
8247;SDS011;4164;49.844;8.830;2023-02-15T15:21:09;28.03;;;16.37;;
8247;SDS011;4164;49.844;8.830;2023-02-15T15:23:42;35.43;;;17.10;;
8247;SDS011;4164;49.844;8.830;2023-02-15T15:26:29;33.27;;;17.43;;
8247;SDS011;4164;49.844;8.830;2023-02-15T15:28:59;33.80;;;16.13;;
8247;SDS011;4164;49.844;8.830;2023-02-15T15:40:24;31.30;;;17.53;;
8247;SDS011;4164;49.844;8.830;2023-02-15T15:48:37;31.87;;;18.27;;
8247;SDS011;4164;49.844;8.830;2023-02-15T15:51:27;30.10;;;16.80;;
8247;SDS011;4164;49.844;8.830;2023-02-15T15:53:56;36.23;;;19.30;;
8247;SDS011;4164;49.844;8.830;2023-02-15T15:56:24;33.50;;;18.33;;
8247;SDS011;4164;49.844;8.830;2023-02-15T15:58:54;37.47;;;18.60;;
8247;SDS011;4164;49.844;8.830;2023-02-15T16:01:27;35.57;;;18.97;;
8247;SDS011;4164;49.844;8.830;2023-02-15T16:03:56;39.33;;;20.20;;
8247;SDS011;4164;49.844;8.830;2023-02-15T16:06:57;42.83;;;22.30;;
8247;SDS011;4164;49.844;8.830;2023-02-15T16:09:20;42.20;;;22.53;;
8247;SDS011;4164;49.844;8.830;2023-02-15T16:11:49;44.43;;;21.40;;
8247;SDS011;4164;49.844;8.830;2023-02-15T16:14:28;44.43;;;23.23;;
8247;SDS011;4164;49.844;8.830;2023-02-15T16:17:03;49.97;;;24.90;;
8247;SDS011;4164;49.844;8.830;2023-02-15T16:19:34;47.80;;;23.47;;
8247;SDS011;4164;49.844;8.830;2023-02-15T16:22:03;47.20;;;23.93;;
8247;SDS011;4164;49.844;8.830;2023-02-15T16:27:39;49.70;;;24.30;;
8247;SDS011;4164;49.844;8.830;2023-02-15T16:33:10;45.80;;;23.63;;
8247;SDS011;4164;49.844;8.830;2023-02-15T16:35:52;53.67;;;24.93;;
8247;SDS011;4164;49.844;8.830;2023-02-15T16:38:30;49.67;;;24.60;;
8247;SDS011;4164;49.844;8.830;2023-02-15T16:41:03;57.43;;;25.70;;
8247;SDS011;4164;49.844;8.830;2023-02-15T16:43:29;50.83;;;25.37;;
8247;SDS011;4164;49.844;8.830;2023-02-15T16:46:02;59.57;;;27.90;;
8247;SDS011;4164;49.844;8.830;2023-02-15T16:48:32;56.50;;;26.73;;
8247;SDS011;4164;49.844;8.830;2023-02-15T16:51:02;61.37;;;27.53;;
8247;SDS011;4164;49.844;8.830;2023-02-15T16:53:28;51.57;;;25.50;;
8247;SDS011;4164;49.844;8.830;2023-02-15T16:55:58;51.37;;;25.07;;
8247;SDS011;4164;49.844;8.830;2023-02-15T16:58:40;57.53;;;27.30;;
8247;SDS011;4164;49.844;8.830;2023-02-15T17:01:08;59.40;;;28.17;;
8247;SDS011;4164;49.844;8.830;2023-02-15T17:03:36;66.50;;;28.60;;
8247;SDS011;4164;49.844;8.830;2023-02-15T17:06:02;59.40;;;29.33;;
8247;SDS011;4164;49.844;8.830;2023-02-15T17:08:30;66.77;;;30.60;;
8247;SDS011;4164;49.844;8.830;2023-02-15T17:14:20;63.60;;;28.03;;
8247;SDS011;4164;49.844;8.830;2023-02-15T17:16:47;64.77;;;27.57;;
8247;SDS011;4164;49.844;8.830;2023-02-15T17:19:20;63.30;;;27.17;;
8247;SDS011;4164;49.844;8.830;2023-02-15T17:21:50;59.50;;;26.17;;
8247;SDS011;4164;49.844;8.830;2023-02-15T17:24:24;58.73;;;28.47;;
8247;SDS011;4164;49.844;8.830;2023-02-15T17:27:14;62.50;;;28.20;;
8247;SDS011;4164;49.844;8.830;2023-02-15T17:29:55;66.57;;;28.67;;
8247;SDS011;4164;49.844;8.830;2023-02-15T17:32:26;140.27;;;40.43;;
8247;SDS011;4164;49.844;8.830;2023-02-15T17:35:05;73.50;;;29.27;;
8247;SDS011;4164;49.844;8.830;2023-02-15T17:40:10;72.97;;;29.00;;
8247;SDS011;4164;49.844;8.830;2023-02-15T17:42:50;78.53;;;29.77;;
8247;SDS011;4164;49.844;8.830;2023-02-15T17:45:16;88.33;;;29.47;;
8247;SDS011;4164;49.844;8.830;2023-02-15T17:47:42;86.63;;;31.77;;
8247;SDS011;4164;49.844;8.830;2023-02-15T17:50:20;84.17;;;29.50;;
8247;SDS011;4164;49.844;8.830;2023-02-15T17:52:47;95.60;;;32.67;;
8247;SDS011;4164;49.844;8.830;2023-02-15T17:55:15;102.47;;;33.77;;
8247;SDS011;4164;49.844;8.830;2023-02-15T17:58:10;88.70;;;32.33;;
8247;SDS011;4164;49.844;8.830;2023-02-15T18:00:38;86.77;;;33.00;;
8247;SDS011;4164;49.844;8.830;2023-02-15T18:03:24;127.50;;;36.30;;
8247;SDS011;4164;49.844;8.830;2023-02-15T18:06:17;97.53;;;32.73;;
8247;SDS011;4164;49.844;8.830;2023-02-15T18:09:01;89.97;;;31.93;;
8247;SDS011;4164;49.844;8.830;2023-02-15T18:11:46;128.73;;;35.60;;
8247;SDS011;4164;49.844;8.830;2023-02-15T18:14:13;91.63;;;32.23;;
8247;SDS011;4164;49.844;8.830;2023-02-15T18:16:40;87.67;;;31.97;;
8247;SDS011;4164;49.844;8.830;2023-02-15T18:19:14;89.57;;;30.40;;